Time;durP1;ratioP1;P1;durP2;ratioP2;P2;SDS_P1;SDS_P2;PMS_P1;PMS_P2;Temp;Humidity;BMP_temperature;BMP_pressure;BME280_temperature;BME280_humidity;BME280_pressure;Samples;Min_cycle;Max_cycle;Signal;HPM_P1;HPM_P2
2021/06/02 00:00:19;;;;;;;;;;;12.90;79.50;;;;;;5022639;28;19913;-69
2021/06/02 00:02:45;;;;;;;;;;;12.90;79.70;;;;;;5024731;28;19975;-70
2021/06/02 00:05:11;;;;;;;;;;;12.80;79.50;;;;;;5023095;28;19996;-69
2021/06/02 00:07:39;;;;;;;;;;;12.80;79.50;;;;;;5025653;28;20530;-70
2021/06/02 00:10:05;;;;;;;;;;;12.70;79.40;;;;;;5022680;28;19971;-69
2021/06/02 00:12:31;;;;;;;;;;;12.60;79.40;;;;;;5025299;28;20368;-69
2021/06/02 00:14:56;;;;;;;;;;;12.60;78.90;;;;;;5023484;28;20064;-69
2021/06/02 00:17:22;;;;;;;;;;;12.60;78.50;;;;;;5022869;28;19924;-69
2021/06/02 00:19:47;;;;;;;;;;;12.60;78.30;;;;;;5021948;28;20293;-71
2021/06/02 00:22:13;;;;;;;;;;;12.60;78.40;;;;;;5024463;28;19924;-69
2021/06/02 00:24:39;;;;;;;;;;;12.60;78.00;;;;;;5021781;28;19918;-69
2021/06/02 00:27:05;;;;;;;;;;;12.60;77.80;;;;;;5025514;28;20439;-69
2021/06/02 00:29:32;;;;;;;;;;;12.60;77.90;;;;;;5023598;28;19975;-69
2021/06/02 00:31:57;;;;;;;;;;;12.60;77.50;;;;;;5023721;28;19916;-69
2021/06/02 00:34:23;;;;;;;;;;;12.60;77.30;;;;;;5022917;28;19913;-70
2021/06/02 00:36:49;;;;;;;;;;;12.60;76.80;;;;;;5023223;28;20392;-69
2021/06/02 00:39:15;;;;;;;;;;;12.60;77.00;;;;;;5024415;28;19917;-69
2021/06/02 00:41:42;;;;;;;;;;;12.50;77.00;;;;;;5023626;28;20004;-70
2021/06/02 00:44:08;;;;;;;;;;;12.50;76.90;;;;;;5020237;28;19921;-69
2021/06/02 00:46:37;;;;;;;;;;;12.40;76.60;;;;;;5023666;28;19913;-68
2021/06/02 00:49:03;;;;;;;;;;;12.30;76.30;;;;;;5023377;28;19928;-68
2021/06/02 00:51:29;;;;;;;;;;;12.30;76.50;;;;;;5024483;28;19981;-68
2021/06/02 00:53:55;;;;;;;;;;;12.30;76.10;;;;;;5020130;28;20370;-69
2021/06/02 00:56:26;;;;;;;;;;;12.20;76.10;;;;;;5022763;28;19936;-69
2021/06/02 00:58:52;;;;;;;;;;;12.20;76.30;;;;;;5021216;28;20348;-69
2021/06/02 01:01:17;;;;;;;;;;;12.20;76.20;;;;;;5023910;28;20321;-68
2021/06/02 01:03:43;;;;;;;;;;;12.20;75.60;;;;;;5023469;28;20357;-68
2021/06/02 01:06:09;;;;;;;;;;;12.20;75.70;;;;;;5014171;28;20014;-68
2021/06/02 01:08:35;;;;;;;;;;;12.20;75.90;;;;;;5021840;28;19913;-70
2021/06/02 01:11:01;;;;;;;;;;;12.20;75.60;;;;;;5024386;28;19913;-69
2021/06/02 01:13:28;;;;;;;;;;;12.10;75.50;;;;;;5024874;28;19923;-70
2021/06/02 01:15:53;;;;;;;;;;;12.10;75.30;;;;;;5024209;28;19942;-69
2021/06/02 01:18:19;;;;;;;;;;;12.00;75.90;;;;;;5016280;28;19913;-68
2021/06/02 01:20:45;;;;;;;;;;;12.00;75.60;;;;;;5019952;28;19972;-70
2021/06/02 01:23:11;;;;;;;;;;;12.00;75.60;;;;;;5025243;28;19913;-69
2021/06/02 01:25:39;;;;;;;;;;;11.90;75.70;;;;;;5017453;28;19933;-69
2021/06/02 01:28:05;;;;;;;;;;;11.90;75.40;;;;;;5024876;28;20000;-69
2021/06/02 01:30:31;;;;;;;;;;;11.90;75.70;;;;;;5020831;28;19913;-68
2021/06/02 01:33:03;;;;;;;;;;;11.90;75.40;;;;;;5014662;28;20278;-68
2021/06/02 01:35:32;;;;;;;;;;;11.80;75.50;;;;;;5016840;28;20333;-68
2021/06/02 01:38:16;;;;;;;;;;;11.80;75.70;;;;;;5025379;28;19959;-69
2021/06/02 01:41:00;;;;;;;;;;;11.80;75.50;;;;;;5023936;28;19947;-69
2021/06/02 01:43:46;;;;;;;;;;;11.80;75.80;;;;;;5023877;28;19917;-68
2021/06/02 01:46:26;;;;;;;;;;;11.70;75.50;;;;;;5022475;28;20249;-69
2021/06/02 01:49:30;;;;;;;;;;;11.70;76.00;;;;;;5025479;28;19939;-67
2021/06/02 01:51:56;;;;;;;;;;;11.60;76.10;;;;;;5001813;28;19971;-70
2021/06/02 01:54:24;;;;;;;;;;;11.60;76.20;;;;;;5000443;28;19921;-69
2021/06/02 01:56:52;;;;;;;;;;;11.60;76.30;;;;;;5010644;28;19940;-68
2021/06/02 01:59:44;;;;;;;;;;;11.60;76.10;;;;;;5018341;28;20507;-68
2021/06/02 02:02:29;;;;;;;;;;;11.60;76.10;;;;;;5015917;28;19917;-68
2021/06/02 02:05:08;;;;;;;;;;;11.60;75.90;;;;;;5023487;28;19928;-69
2021/06/02 02:07:53;;;;;;;;;;;11.70;75.60;;;;;;5023318;28;19914;-68
2021/06/02 02:10:33;;;;;;;;;;;11.70;75.80;;;;;;5023222;28;21662;-69
2021/06/02 02:13:17;;;;;;;;;;;11.70;75.60;;;;;;5022403;28;20008;-69
2021/06/02 02:15:43;;;;;;;;;;;11.80;75.60;;;;;;5022996;28;20026;-68
2021/06/02 02:18:27;;;;;;;;;;;11.70;75.90;;;;;;5024050;28;19971;-68
2021/06/02 02:21:00;;;;;;;;;;;11.70;76.00;;;;;;5021981;28;20035;-68
2021/06/02 02:23:28;;;;;;;;;;;11.70;76.10;;;;;;5023403;28;19920;-71
2021/06/02 02:25:56;;;;;;;;;;;11.60;76.00;;;;;;5017724;28;19932;-69
2021/06/02 02:28:37;;;;;;;;;;;11.50;76.70;;;;;;5022623;28;20235;-68
2021/06/02 02:31:12;;;;;;;;;;;11.50;76.50;;;;;;5021560;28;19959;-68
2021/06/02 02:34:06;;;;;;;;;;;11.50;76.90;;;;;;5022130;28;20393;-68
2021/06/02 02:36:40;;;;;;;;;;;11.40;77.20;;;;;;5016509;28;20386;-68
2021/06/02 02:39:24;;;;;;;;;;;11.30;77.70;;;;;;5023826;28;19909;-68
2021/06/02 02:42:03;;;;;;;;;;;11.30;77.50;;;;;;5016181;28;20004;-68
2021/06/02 02:44:34;;;;;;;;;;;11.30;78.10;;;;;;5018835;28;20027;-68
2021/06/02 02:47:20;;;;;;;;;;;11.20;77.80;;;;;;5023476;28;19917;-68
2021/06/02 02:49:48;;;;;;;;;;;11.20;78.00;;;;;;5017011;28;20517;-69
2021/06/02 02:52:20;;;;;;;;;;;11.20;78.20;;;;;;5024290;28;19935;-68
2021/06/02 02:55:03;;;;;;;;;;;11.10;78.80;;;;;;5022399;28;20015;-68
2021/06/02 02:57:43;;;;;;;;;;;11.10;78.70;;;;;;5021748;28;19999;-68
2021/06/02 03:00:16;;;;;;;;;;;11.00;79.00;;;;;;5022103;28;19924;-68
2021/06/02 03:03:01;;;;;;;;;;;11.00;79.20;;;;;;5021099;28;20344;-69
2021/06/02 03:05:28;;;;;;;;;;;11.00;78.90;;;;;;5021762;28;20368;-68
2021/06/02 03:08:08;;;;;;;;;;;11.00;79.60;;;;;;5023178;28;20124;-70
2021/06/02 03:10:35;;;;;;;;;;;11.00;79.50;;;;;;5022251;28;20275;-69
2021/06/02 03:13:10;;;;;;;;;;;11.00;79.30;;;;;;5022819;28;19936;-69
2021/06/02 03:15:48;;;;;;;;;;;11.00;79.50;;;;;;5021589;28;19975;-70
2021/06/02 03:18:14;;;;;;;;;;;11.00;79.40;;;;;;5023267;28;19928;-68
2021/06/02 03:20:59;;;;;;;;;;;11.00;79.60;;;;;;5020196;28;20326;-68
2021/06/02 03:23:25;;;;;;;;;;;11.00;79.50;;;;;;5016783;28;19916;-68
2021/06/02 03:26:05;;;;;;;;;;;10.90;80.00;;;;;;5018070;28;19917;-69
2021/06/02 03:28:31;;;;;;;;;;;10.90;80.20;;;;;;5018779;28;19917;-69
2021/06/02 03:31:02;;;;;;;;;;;10.80;80.60;;;;;;5022936;28;19925;-66
2021/06/02 03:33:52;;;;;;;;;;;10.80;80.50;;;;;;5022377;28;19993;-68
2021/06/02 03:36:28;;;;;;;;;;;10.80;80.40;;;;;;5018638;28;19921;-68
2021/06/02 03:39:16;;;;;;;;;;;10.80;80.80;;;;;;5015442;28;19917;-70
2021/06/02 03:41:54;;;;;;;;;;;10.80;80.60;;;;;;5022097;28;19925;-69
2021/06/02 03:44:20;;;;;;;;;;;10.80;80.70;;;;;;5022021;28;20032;-68
2021/06/02 03:46:48;;;;;;;;;;;10.80;80.80;;;;;;5020781;28;20019;-69
2021/06/02 03:49:21;;;;;;;;;;;10.80;80.70;;;;;;5016468;28;19921;-69
2021/06/02 03:51:49;;;;;;;;;;;10.80;81.10;;;;;;5010352;28;19931;-68
2021/06/02 03:54:17;;;;;;;;;;;10.80;81.10;;;;;;5021785;28;19932;-68
2021/06/02 03:56:53;;;;;;;;;;;10.80;81.10;;;;;;5020235;28;19999;-68
2021/06/02 03:59:34;;;;;;;;;;;10.80;81.20;;;;;;5018896;28;19917;-69
2021/06/02 04:02:06;;;;;;;;;;;10.80;81.20;;;;;;5021949;28;20056;-69
2021/06/02 04:04:35;;;;;;;;;;;10.80;81.40;;;;;;5021663;28;20044;-68
2021/06/02 04:07:03;;;;;;;;;;;10.80;81.10;;;;;;5021724;28;19952;-68
2021/06/02 04:09:30;;;;;;;;;;;10.90;80.90;;;;;;5014937;28;19979;-68
2021/06/02 04:11:56;;;;;;;;;;;10.90;80.70;;;;;;5020328;28;20057;-68
2021/06/02 04:14:32;;;;;;;;;;;10.90;80.90;;;;;;5005921;28;20418;-69
2021/06/02 04:16:58;;;;;;;;;;;10.90;80.90;;;;;;5010365;28;19917;-69
2021/06/02 04:19:25;;;;;;;;;;;11.00;80.80;;;;;;5018393;28;19936;-68
2021/06/02 04:21:51;;;;;;;;;;;11.00;80.70;;;;;;5015911;28;19928;-68
2021/06/02 04:24:17;;;;;;;;;;;11.10;80.90;;;;;;5020278;28;19913;-68
2021/06/02 04:26:43;;;;;;;;;;;11.00;81.30;;;;;;5021330;28;19933;-68
2021/06/02 04:29:11;;;;;;;;;;;11.10;80.70;;;;;;5024910;28;19990;-68
2021/06/02 04:31:37;;;;;;;;;;;11.10;80.30;;;;;;5024307;28;19920;-69
2021/06/02 04:34:03;;;;;;;;;;;11.20;80.50;;;;;;5025562;28;19948;-68
2021/06/02 04:36:29;;;;;;;;;;;11.20;80.60;;;;;;5025579;28;20257;-66
2021/06/02 04:38:55;;;;;;;;;;;11.20;80.20;;;;;;5026006;28;20341;-69
2021/06/02 04:41:22;;;;;;;;;;;11.30;79.70;;;;;;5020526;28;19921;-69
2021/06/02 04:43:48;;;;;;;;;;;11.40;79.50;;;;;;5037717;28;19979;-68
2021/06/02 04:46:14;;;;;;;;;;;11.40;79.40;;;;;;5024406;28;20469;-68
2021/06/02 04:48:40;;;;;;;;;;;11.50;79.30;;;;;;5024400;28;19974;-68
2021/06/02 04:51:09;;;;;;;;;;;11.50;79.20;;;;;;5024391;28;19921;-69
2021/06/02 04:53:47;;;;;;;;;;;11.50;79.20;;;;;;5025267;28;19959;-69
2021/06/02 04:56:13;;;;;;;;;;;11.50;78.70;;;;;;5026114;28;19916;-69
2021/06/02 04:58:57;;;;;;;;;;;11.60;79.20;;;;;;5019294;28;20246;-70
2021/06/02 05:01:22;;;;;;;;;;;11.70;78.80;;;;;;5018935;28;19990;-68
2021/06/02 05:04:06;;;;;;;;;;;11.70;78.30;;;;;;5014313;28;19980;-70
2021/06/02 05:06:51;;;;;;;;;;;11.80;78.70;;;;;;5007446;28;20323;-69
2021/06/02 05:09:34;;;;;;;;;;;11.80;78.70;;;;;;5018000;28;19926;-69
2021/06/02 05:12:15;;;;;;;;;;;11.80;78.10;;;;;;5022546;28;19935;-69
2021/06/02 05:14:47;;;;;;;;;;;11.90;78.20;;;;;;5035548;28;19917;-69
2021/06/02 05:17:15;;;;;;;;;;;11.80;78.00;;;;;;5021183;28;19995;-70
2021/06/02 05:22:37;;;;;;;;;;;12.00;78.20;;;;;;5022710;28;19921;-69
2021/06/02 05:25:21;;;;;;;;;;;12.00;77.70;;;;;;5024181;28;20369;-68
2021/06/02 05:28:05;;;;;;;;;;;12.10;77.90;;;;;;5020554;28;19960;-68
2021/06/02 05:30:31;;;;;;;;;;;12.10;78.40;;;;;;5024909;28;19935;-70
2021/06/02 05:32:59;;;;;;;;;;;12.10;77.60;;;;;;5023653;28;19913;-69
2021/06/02 05:35:31;;;;;;;;;;;12.00;78.40;;;;;;5023499;28;20046;-68
2021/06/02 05:38:15;;;;;;;;;;;12.00;78.80;;;;;;5024340;28;20411;-69
2021/06/02 05:40:50;;;;;;;;;;;12.00;78.00;;;;;;5024414;28;19921;-69
2021/06/02 05:43:22;;;;;;;;;;;12.10;78.20;;;;;;5023363;28;19913;-68
2021/06/02 05:46:02;;;;;;;;;;;12.10;78.70;;;;;;5022318;28;19945;-69
2021/06/02 05:48:34;;;;;;;;;;;12.10;77.70;;;;;;5023706;28;20310;-69
2021/06/02 05:51:11;;;;;;;;;;;12.30;78.70;;;;;;5024424;28;19921;-69
2021/06/02 05:53:37;;;;;;;;;;;12.40;77.40;;;;;;5024211;28;20012;-69
2021/06/02 05:56:17;;;;;;;;;;;12.60;77.00;;;;;;5023890;28;20016;-69
2021/06/02 05:58:49;;;;;;;;;;;12.70;76.40;;;;;;5021155;28;19975;-68
2021/06/02 06:01:14;;;;;;;;;;;12.80;74.90;;;;;;5020890;28;20199;-68
2021/06/02 06:03:42;;;;;;;;;;;12.90;75.30;;;;;;5019320;28;20032;-70
2021/06/02 06:06:26;;;;;;;;;;;12.90;75.20;;;;;;5025003;28;19924;-69
2021/06/02 06:09:10;;;;;;;;;;;12.90;76.00;;;;;;5018437;28;19996;-69
2021/06/02 06:11:51;;;;;;;;;;;12.90;74.60;;;;;;5023028;28;19965;-69
2021/06/02 06:14:29;;;;;;;;;;;13.10;75.20;;;;;;5022149;28;20008;-68
2021/06/02 06:17:03;;;;;;;;;;;13.10;74.90;;;;;;5023553;28;19917;-69
2021/06/02 06:19:41;;;;;;;;;;;13.30;74.80;;;;;;5024197;28;20028;-69
2021/06/02 06:22:15;;;;;;;;;;;13.60;74.10;;;;;;5019178;28;19963;-70
2021/06/02 06:24:53;;;;;;;;;;;14.20;72.90;;;;;;5023260;28;20324;-70
2021/06/02 06:27:29;;;;;;;;;;;14.10;71.00;;;;;;5021255;28;20138;-69
2021/06/02 06:30:06;;;;;;;;;;;14.10;71.20;;;;;;5021829;28;20385;-71
2021/06/02 06:32:33;;;;;;;;;;;14.50;71.00;;;;;;5022380;28;19964;-70
2021/06/02 06:35:00;;;;;;;;;;;14.40;70.50;;;;;;5024012;28;19913;-69
2021/06/02 06:37:31;;;;;;;;;;;14.60;70.80;;;;;;5022561;28;19917;-69
2021/06/02 06:39:59;;;;;;;;;;;14.90;69.20;;;;;;5012240;28;20015;-69
2021/06/02 06:42:26;;;;;;;;;;;15.10;68.10;;;;;;5025160;28;19978;-69
2021/06/02 06:45:02;;;;;;;;;;;15.10;69.50;;;;;;5022249;28;19913;-69
2021/06/02 06:47:28;;;;;;;;;;;15.30;69.60;;;;;;5023647;28;20213;-70
2021/06/02 06:49:55;;;;;;;;;;;15.60;70.30;;;;;;5022801;28;19963;-70
2021/06/02 06:52:23;;;;;;;;;;;15.90;67.50;;;;;;5029478;28;19932;-71
2021/06/02 06:54:49;;;;;;;;;;;15.60;66.60;;;;;;5020979;28;20297;-69
2021/06/02 06:57:17;;;;;;;;;;;16.00;66.90;;;;;;5021381;28;19924;-70
2021/06/02 06:59:43;;;;;;;;;;;15.90;65.90;;;;;;5021365;28;20381;-69
2021/06/02 07:02:09;;;;;;;;;;;16.30;66.40;;;;;;5022537;28;19921;-70
2021/06/02 07:04:34;;;;;;;;;;;16.60;66.10;;;;;;5016261;28;19929;-68
2021/06/02 07:07:00;;;;;;;;;;;16.50;64.30;;;;;;5009405;28;20396;-70
2021/06/02 07:09:25;;;;;;;;;;;16.40;64.00;;;;;;5023630;28;19924;-70
2021/06/02 07:11:54;;;;;;;;;;;16.20;64.20;;;;;;5022810;28;20093;-70
2021/06/02 07:14:24;;;;;;;;;;;16.30;64.10;;;;;;5021336;28;19917;-70
2021/06/02 07:16:50;;;;;;;;;;;16.50;63.10;;;;;;5025551;28;19978;-69
2021/06/02 07:19:16;;;;;;;;;;;16.70;64.20;;;;;;5023129;28;20234;-70
2021/06/02 07:21:43;;;;;;;;;;;17.00;62.00;;;;;;5020796;28;19955;-69
2021/06/02 07:24:09;;;;;;;;;;;17.30;62.60;;;;;;5022231;28;19913;-73
2021/06/02 07:26:35;;;;;;;;;;;17.50;60.80;;;;;;5023792;28;20361;-69
2021/06/02 07:29:00;;;;;;;;;;;17.40;61.40;;;;;;5010528;28;19972;-70
2021/06/02 07:31:26;;;;;;;;;;;17.70;61.10;;;;;;5020289;28;19921;-70
2021/06/02 07:33:52;;;;;;;;;;;17.80;61.60;;;;;;5020350;28;19917;-70
2021/06/02 07:36:17;;;;;;;;;;;17.50;59.70;;;;;;5021583;28;19924;-69
2021/06/02 07:38:43;;;;;;;;;;;18.00;61.10;;;;;;5022636;28;19933;-69
2021/06/02 07:41:08;;;;;;;;;;;17.90;58.40;;;;;;5023422;28;19960;-70
2021/06/02 07:43:34;;;;;;;;;;;18.00;59.50;;;;;;5019649;28;19978;-70
2021/06/02 07:46:00;;;;;;;;;;;18.20;59.60;;;;;;5020975;28;20001;-69
2021/06/02 07:48:26;;;;;;;;;;;18.50;59.40;;;;;;5021853;28;19956;-70
2021/06/02 07:50:51;;;;;;;;;;;18.50;58.10;;;;;;5023237;28;20432;-70
2021/06/02 07:53:17;;;;;;;;;;;18.60;58.10;;;;;;5018768;28;19971;-70
2021/06/02 07:55:42;;;;;;;;;;;18.50;58.20;;;;;;5022487;28;20350;-70
2021/06/02 07:58:08;;;;;;;;;;;18.50;58.20;;;;;;5021327;28;19932;-69
2021/06/02 08:00:33;;;;;;;;;;;18.60;56.80;;;;;;5019037;28;19996;-70
2021/06/02 08:02:59;;;;;;;;;;;18.50;55.20;;;;;;5020878;28;20547;-70
2021/06/02 08:05:24;;;;;;;;;;;18.70;54.80;;;;;;5025442;28;20370;-70
2021/06/02 08:07:50;;;;;;;;;;;19.10;54.00;;;;;;5024594;28;20003;-70
2021/06/02 08:10:16;;;;;;;;;;;19.00;54.60;;;;;;5025433;28;19913;-71
2021/06/02 08:12:42;;;;;;;;;;;18.90;53.40;;;;;;5025163;28;19921;-70
2021/06/02 08:15:09;;;;;;;;;;;19.30;56.70;;;;;;5026652;28;20146;-70
2021/06/02 08:17:35;;;;;;;;;;;19.60;54.50;;;;;;5023704;28;19913;-69
2021/06/02 08:20:00;;;;;;;;;;;20.00;55.20;;;;;;5018551;28;20356;-69
2021/06/02 08:22:26;;;;;;;;;;;20.00;53.20;;;;;;5025019;28;20552;-71
2021/06/02 08:24:51;;;;;;;;;;;20.30;51.40;;;;;;5027686;28;20105;-70
2021/06/02 08:27:17;;;;;;;;;;;20.00;52.60;;;;;;5027182;28;20403;-69
2021/06/02 08:29:43;;;;;;;;;;;20.40;50.80;;;;;;5023682;28;19913;-70
2021/06/02 08:32:09;;;;;;;;;;;20.30;52.00;;;;;;5028516;28;20108;-70
2021/06/02 08:34:34;;;;;;;;;;;20.20;48.70;;;;;;5023611;28;20431;-70
2021/06/02 08:37:00;;;;;;;;;;;19.90;50.30;;;;;;5018040;28;19917;-71
2021/06/02 08:39:25;;;;;;;;;;;20.10;49.70;;;;;;5023421;28;19913;-70
2021/06/02 08:41:51;;;;;;;;;;;19.70;50.30;;;;;;5024016;28;20346;-71
2021/06/02 08:44:19;;;;;;;;;;;20.10;50.60;;;;;;5025047;28;20413;-70
2021/06/02 08:46:46;;;;;;;;;;;20.30;50.00;;;;;;5025077;28;19917;-70
2021/06/02 08:49:15;;;;;;;;;;;20.30;50.80;;;;;;5025298;28;19929;-71
2021/06/02 08:51:41;;;;;;;;;;;21.00;50.60;;;;;;5025731;28;19924;-70
2021/06/02 08:54:06;;;;;;;;;;;21.10;51.40;;;;;;5024513;28;20389;-69
2021/06/02 08:56:42;;;;;;;;;;;21.10;50.90;;;;;;5026328;28;19913;-71
2021/06/02 08:59:08;;;;;;;;;;;21.00;47.80;;;;;;5022654;28;20409;-70
2021/06/02 09:01:34;;;;;;;;;;;21.30;48.00;;;;;;5019642;28;19917;-71
2021/06/02 09:04:03;;;;;;;;;;;20.40;48.70;;;;;;5023788;28;20016;-70
2021/06/02 09:06:29;;;;;;;;;;;20.90;50.60;;;;;;5025337;28;20187;-70
2021/06/02 09:08:54;;;;;;;;;;;21.00;49.00;;;;;;5024592;28;19999;-70
2021/06/02 09:11:20;;;;;;;;;;;20.70;49.40;;;;;;5026825;28;20024;-70
2021/06/02 09:13:46;;;;;;;;;;;21.10;49.90;;;;;;5022450;28;20312;-72
2021/06/02 09:16:30;;;;;;;;;;;21.10;49.00;;;;;;5023162;28;20056;-70
2021/06/02 09:19:03;;;;;;;;;;;21.10;49.30;;;;;;5027572;28;20019;-71
2021/06/02 09:21:29;;;;;;;;;;;21.00;47.10;;;;;;5023504;28;20480;-70
2021/06/02 09:23:55;;;;;;;;;;;21.00;47.80;;;;;;5022727;28;19913;-70
2021/06/02 09:26:23;;;;;;;;;;;20.90;51.20;;;;;;5024244;28;19917;-72
2021/06/02 09:28:53;;;;;;;;;;;21.50;48.70;;;;;;5024594;28;19982;-71
2021/06/02 09:31:24;;;;;;;;;;;21.90;50.20;;;;;;5023690;28;19920;-71
2021/06/02 09:33:49;;;;;;;;;;;22.60;48.60;;;;;;5019728;28;19971;-70
2021/06/02 09:36:15;;;;;;;;;;;22.50;47.00;;;;;;5022065;28;20004;-71
2021/06/02 09:38:42;;;;;;;;;;;21.40;49.60;;;;;;5022809;28;20301;-70
2021/06/02 09:41:12;;;;;;;;;;;21.70;48.90;;;;;;5023071;28;19987;-71
2021/06/02 09:43:38;;;;;;;;;;;21.60;49.20;;;;;;5022958;28;19917;-70
2021/06/02 09:46:04;;;;;;;;;;;21.40;48.60;;;;;;5022375;28;19917;-72
2021/06/02 09:48:38;;;;;;;;;;;21.70;49.40;;;;;;5024162;28;20465;-70
2021/06/02 09:51:03;;;;;;;;;;;22.00;50.60;;;;;;5023912;28;19993;-71
2021/06/02 09:53:29;;;;;;;;;;;21.70;48.60;;;;;;5023297;28;19920;-71
2021/06/02 09:55:54;;;;;;;;;;;21.40;49.80;;;;;;5008577;28;19936;-72
2021/06/02 09:58:20;;;;;;;;;;;21.90;51.70;;;;;;5022639;28;19939;-71
2021/06/02 10:00:53;;;;;;;;;;;22.50;50.10;;;;;;5023006;28;20407;-71
2021/06/02 10:03:19;;;;;;;;;;;22.10;50.40;;;;;;5025205;28;19924;-70
2021/06/02 10:05:52;;;;;;;;;;;22.70;49.20;;;;;;5026736;28;19913;-71
2021/06/02 10:08:46;;;;;;;;;;;22.00;49.70;;;;;;5028146;28;20352;-71
2021/06/02 10:11:12;;;;;;;;;;;22.50;47.20;;;;;;5014478;28;20061;-71
2021/06/02 10:13:38;;;;;;;;;;;23.40;49.30;;;;;;5015512;28;20057;-72
2021/06/02 10:16:04;;;;;;;;;;;23.10;45.90;;;;;;5024069;28;19916;-71
2021/06/02 10:18:34;;;;;;;;;;;23.60;45.50;;;;;;5019851;28;20326;-73
2021/06/02 10:21:10;;;;;;;;;;;22.60;45.00;;;;;;5022696;28;19925;-72
2021/06/02 10:23:40;;;;;;;;;;;21.60;48.60;;;;;;5022166;28;20408;-70
2021/06/02 10:26:09;;;;;;;;;;;21.80;48.80;;;;;;5021228;28;20008;-71
2021/06/02 10:28:35;;;;;;;;;;;22.10;48.30;;;;;;5021011;28;19924;-71
2021/06/02 10:31:02;;;;;;;;;;;22.40;46.50;;;;;;5023071;28;20020;-72
2021/06/02 10:33:28;;;;;;;;;;;22.50;46.30;;;;;;5019501;28;19941;-71
2021/06/02 10:35:54;;;;;;;;;;;22.60;46.70;;;;;;5020399;28;19913;-71
2021/06/02 10:38:20;;;;;;;;;;;22.50;46.50;;;;;;5022962;28;19936;-71
2021/06/02 10:40:46;;;;;;;;;;;23.40;48.90;;;;;;5024334;28;19993;-71
2021/06/02 10:43:14;;;;;;;;;;;23.40;46.40;;;;;;5023104;28;19999;-74
2021/06/02 10:45:58;;;;;;;;;;;23.50;44.70;;;;;;5018569;28;20418;-71
2021/06/02 10:48:41;;;;;;;;;;;23.40;44.90;;;;;;5017750;28;19917;-72
2021/06/02 10:51:07;;;;;;;;;;;23.70;44.00;;;;;;5017453;28;20023;-69
2021/06/02 10:53:33;;;;;;;;;;;24.40;45.20;;;;;;5022170;28;20016;-70
2021/06/02 10:55:59;;;;;;;;;;;24.00;45.40;;;;;;5023750;28;20020;-71
2021/06/02 10:58:26;;;;;;;;;;;24.20;43.20;;;;;;5018765;28;19989;-72
2021/06/02 11:01:09;;;;;;;;;;;23.70;44.00;;;;;;5020008;28;20099;-71
2021/06/02 11:03:36;;;;;;;;;;;24.40;45.10;;;;;;5022329;28;19913;-71
2021/06/02 11:06:13;;;;;;;;;;;24.30;44.00;;;;;;5019732;28;19935;-71
2021/06/02 11:08:48;;;;;;;;;;;24.00;42.80;;;;;;5022565;28;19956;-72
2021/06/02 11:11:19;;;;;;;;;;;24.70;42.50;;;;;;5023777;28;19952;-72
2021/06/02 11:14:05;;;;;;;;;;;24.40;44.60;;;;;;5022563;28;20054;-71
2021/06/02 11:16:37;;;;;;;;;;;24.00;44.70;;;;;;5022377;28;19962;-71
2021/06/02 11:19:12;;;;;;;;;;;24.00;47.40;;;;;;5018172;28;19909;-72
2021/06/02 11:21:58;;;;;;;;;;;24.40;44.50;;;;;;5018016;28;20012;-73
2021/06/02 11:24:33;;;;;;;;;;;23.90;43.90;;;;;;5023034;28;20362;-71
2021/06/02 11:27:11;;;;;;;;;;;24.20;44.90;;;;;;5021072;28;20012;-72
2021/06/02 11:29:49;;;;;;;;;;;24.90;44.20;;;;;;5022853;28;19920;-72
2021/06/02 11:32:19;;;;;;;;;;;24.70;43.60;;;;;;5021694;28;19917;-72
2021/06/02 11:34:45;;;;;;;;;;;25.20;44.20;;;;;;5021979;28;20067;-71
2021/06/02 11:37:15;;;;;;;;;;;25.40;44.40;;;;;;5023638;28;19913;-73
2021/06/02 11:39:41;;;;;;;;;;;25.80;42.50;;;;;;5026628;28;19952;-71
2021/06/02 11:42:08;;;;;;;;;;;25.90;42.70;;;;;;5027298;28;20042;-72
2021/06/02 11:44:34;;;;;;;;;;;25.70;41.70;;;;;;5027275;28;20238;-71
2021/06/02 11:47:00;;;;;;;;;;;25.60;41.90;;;;;;5025449;28;20404;-71
2021/06/02 11:49:29;;;;;;;;;;;25.70;43.60;;;;;;5026633;28;20404;-71
2021/06/02 11:51:55;;;;;;;;;;;26.50;40.30;;;;;;5026525;28;19917;-73
2021/06/02 11:54:21;;;;;;;;;;;25.90;43.60;;;;;;5022184;28;20349;-72
2021/06/02 11:56:47;;;;;;;;;;;26.00;41.40;;;;;;5009781;28;19941;-71
2021/06/02 11:59:12;;;;;;;;;;;25.70;40.80;;;;;;5025281;28;19961;-72
2021/06/02 12:01:38;;;;;;;;;;;25.50;41.60;;;;;;5015609;28;20123;-71
2021/06/02 12:04:03;;;;;;;;;;;25.50;43.50;;;;;;5014640;28;19917;-71
2021/06/02 12:06:30;;;;;;;;;;;25.90;41.50;;;;;;5021245;28;20031;-73
2021/06/02 12:08:56;;;;;;;;;;;25.30;41.50;;;;;;5020428;28;19995;-72
2021/06/02 12:11:21;;;;;;;;;;;25.20;43.30;;;;;;5020387;28;20381;-72
2021/06/02 12:13:47;;;;;;;;;;;25.90;43.40;;;;;;5023172;28;19928;-71
2021/06/02 12:16:14;;;;;;;;;;;26.80;42.90;;;;;;5023337;28;20319;-72
2021/06/02 12:18:43;;;;;;;;;;;27.40;39.70;;;;;;5020429;28;20141;-72
2021/06/02 12:21:11;;;;;;;;;;;26.70;40.60;;;;;;5020375;28;20380;-71
2021/06/02 12:23:45;;;;;;;;;;;26.70;42.10;;;;;;5022918;28;19914;-72
2021/06/02 12:26:37;;;;;;;;;;;26.50;40.30;;;;;;5022317;28;20076;-71
2021/06/02 12:29:06;;;;;;;;;;;27.20;38.90;;;;;;5020783;28;19997;-72
2021/06/02 12:31:32;;;;;;;;;;;27.40;39.90;;;;;;5023379;28;19917;-72
2021/06/02 12:34:18;;;;;;;;;;;26.20;39.60;;;;;;5022305;28;19917;-72
2021/06/02 12:36:54;;;;;;;;;;;25.90;42.90;;;;;;5019856;28;20363;-72
2021/06/02 12:39:21;;;;;;;;;;;27.60;43.70;;;;;;5022582;28;19959;-73
2021/06/02 12:41:48;;;;;;;;;;;28.00;38.50;;;;;;5016220;28;20445;-73
2021/06/02 12:44:21;;;;;;;;;;;28.20;39.00;;;;;;5019530;28;20421;-72
2021/06/02 12:46:56;;;;;;;;;;;28.30;38.10;;;;;;5022456;28;20401;-72
2021/06/02 12:49:22;;;;;;;;;;;27.50;39.30;;;;;;5020415;28;19937;-71
2021/06/02 12:51:54;;;;;;;;;;;27.60;37.80;;;;;;5020499;28;19974;-71
2021/06/02 12:54:20;;;;;;;;;;;27.20;41.60;;;;;;5021111;28;19917;-72
2021/06/02 12:56:46;;;;;;;;;;;27.10;39.00;;;;;;5019763;28;20282;-72
2021/06/02 12:59:11;;;;;;;;;;;26.60;41.60;;;;;;5018218;28;19931;-72
2021/06/02 13:01:37;;;;;;;;;;;27.70;39.50;;;;;;5018235;28;19921;-73
2021/06/02 13:04:03;;;;;;;;;;;27.90;39.30;;;;;;5021554;28;19979;-72
2021/06/02 13:06:30;;;;;;;;;;;27.90;38.20;;;;;;5017829;28;19917;-72
2021/06/02 13:08:56;;;;;;;;;;;28.40;37.40;;;;;;5021816;28;19924;-72
2021/06/02 13:11:26;;;;;;;;;;;27.70;39.20;;;;;;5021885;28;19913;-71
2021/06/02 13:13:52;;;;;;;;;;;26.70;41.60;;;;;;5021913;28;19921;-72
2021/06/02 13:16:20;;;;;;;;;;;26.40;40.80;;;;;;5022636;28;19933;-71
2021/06/02 13:19:02;;;;;;;;;;;28.00;43.60;;;;;;5019381;28;19913;-72
2021/06/02 13:21:31;;;;;;;;;;;28.60;38.10;;;;;;5019644;28;20420;-72
2021/06/02 13:24:15;;;;;;;;;;;28.60;37.90;;;;;;5020110;28;19917;-72
2021/06/02 13:26:50;;;;;;;;;;;28.80;36.60;;;;;;5020477;28;19927;-72
2021/06/02 13:29:16;;;;;;;;;;;29.20;37.30;;;;;;5020651;28;20272;-74
2021/06/02 13:31:42;;;;;;;;;;;28.50;39.80;;;;;;5018494;28;19940;-72
2021/06/02 13:34:08;;;;;;;;;;;28.50;39.30;;;;;;5019774;28;20184;-71
2021/06/02 13:36:39;;;;;;;;;;;28.40;39.00;;;;;;5020667;28;20012;-71
2021/06/02 13:39:15;;;;;;;;;;;28.90;38.00;;;;;;5019498;28;19974;-71
2021/06/02 13:41:42;;;;;;;;;;;28.30;41.00;;;;;;5020914;28;19940;-72
2021/06/02 13:44:09;;;;;;;;;;;28.70;37.70;;;;;;5019604;28;19963;-72
2021/06/02 13:46:35;;;;;;;;;;;29.70;37.70;;;;;;5020102;28;19925;-74
2021/06/02 13:49:00;;;;;;;;;;;30.00;36.50;;;;;;5019973;28;19928;-71
2021/06/02 13:51:31;;;;;;;;;;;29.00;38.60;;;;;;5020763;28;19914;-72
2021/06/02 13:54:16;;;;;;;;;;;29.30;37.50;;;;;;5018345;28;19936;-71
2021/06/02 13:57:11;;;;;;;;;;;29.80;37.50;;;;;;5019368;28;19924;-72
2021/06/02 13:59:37;;;;;;;;;;;28.80;38.50;;;;;;5014911;28;19917;-73
2021/06/02 14:02:07;;;;;;;;;;;29.10;36.50;;;;;;5017999;28;19913;-72
2021/06/02 14:04:33;;;;;;;;;;;28.50;40.60;;;;;;5021507;28;20027;-72
2021/06/02 14:07:00;;;;;;;;;;;28.20;38.00;;;;;;5018852;28;19964;-71
2021/06/02 14:09:25;;;;;;;;;;;28.30;40.40;;;;;;5020635;28;20055;-72
2021/06/02 14:11:51;;;;;;;;;;;28.60;38.30;;;;;;5019670;28;20024;-72
2021/06/02 14:14:16;;;;;;;;;;;29.20;37.50;;;;;;5020249;28;20382;-71
2021/06/02 14:16:42;;;;;;;;;;;30.20;37.50;;;;;;5020450;28;19924;-71
2021/06/02 14:19:08;;;;;;;;;;;28.90;38.30;;;;;;5021416;28;20362;-71
2021/06/02 14:21:34;;;;;;;;;;;28.50;37.10;;;;;;5018069;28;20298;-72
2021/06/02 14:24:00;;;;;;;;;;;28.50;37.90;;;;;;5020721;28;19917;-71
2021/06/02 14:26:26;;;;;;;;;;;28.30;38.00;;;;;;5019533;28;20378;-72
2021/06/02 14:28:52;;;;;;;;;;;28.30;38.90;;;;;;5020027;28;19997;-72
2021/06/02 14:31:18;;;;;;;;;;;27.70;40.60;;;;;;5017936;28;19913;-71
2021/06/02 14:33:44;;;;;;;;;;;27.40;41.50;;;;;;5020298;28;19929;-71
2021/06/02 14:36:09;;;;;;;;;;;28.00;41.40;;;;;;5019190;28;19944;-71